Time,TemperatureF,DewpointF,PressureIn,WindDirection,WindDirectionDegrees,WindSpeedMPH,WindSpeedGustMPH,Humidity,HourlyPrecipIn,Conditions,Clouds,dailyrainin,SolarRadiationWatts/m^2,SoftwareType,DateUTC
2014-07-23 00:01:00,57.8,52.7,30.03,ESE,108,0.0,0.0,83,0.00,CLR,SCT,0.00,0.0,WeatherDisplay:10.37,2014-07-23 07:01:00,
2014-07-23 00:06:00,57.6,52.8,30.03,ESE,108,0.0,0.0,84,0.00,CLR,SCT,0.00,0.0,WeatherDisplay:10.37,2014-07-23 07:06:00,
2014-07-23 00:11:00,57.4,52.6,30.04,ESE,108,0.0,0.0,84,0.00,CLR,SCT,0.00,0.0,WeatherDisplay:10.37,2014-07-23 07:11:00,
2014-07-23 00:16:00,57.3,52.5,30.04,ESE,108,0.0,0.0,84,0.00,CLR,SCT,0.00,0.0,WeatherDisplay:10.37,2014-07-23 07:16:00,
2014-07-23 00:21:00,57.1,52.3,30.04,ESE,108,0.0,0.0,84,0.00,CLR,SCT,0.00,0.0,WeatherDisplay:10.37,2014-07-23 07:21:00,
2014-07-23 00:26:00,56.9,52.4,30.04,ESE,108,0.0,0.0,85,0.00,CLR,SCT,0.00,0.0,WeatherDisplay:10.37,2014-07-23 07:26:00,
2014-07-23 00:31:00,56.7,52.2,30.04,ESE,108,1.1,1.1,85,0.00,CLR,SCT,0.00,0.0,WeatherDisplay:10.37,2014-07-23 07:31:00,
2014-07-23 00:36:00,56.5,52.4,30.04,ESE,108,0.0,0.0,86,0.00,CLR,SCT,0.00,0.0,WeatherDisplay:10.37,2014-07-23 07:36:00,
2014-07-23 00:41:00,56.3,52.2,30.04,ESE,108,1.1,0.0,86,0.00,CLR,SCT,0.00,0.0,WeatherDisplay:10.37,2014-07-23 07:41:00,
2014-07-23 00:46:00,56.2,52.1,30.04,ESE,108,0.0,0.0,86,0.00,CLR,SCT,0.00,0.0,WeatherDisplay:10.37,2014-07-23 07:46:00,
2014-07-23 00:51:00,56.0,51.6,30.04,ESE,108,1.1,1.1,85,0.00,CLR,SCT,0.00,0.0,WeatherDisplay:10.37,2014-07-23 07:51:00,
2014-07-23 00:56:00,55.8,51.7,30.04,ESE,108,1.1,0.0,86,0.00,CLR,SCT,0.00,0.0,WeatherDisplay:10.37,2014-07-23 07:56:00,
2014-07-23 01:01:00,55.5,51.7,30.04,ESE,108,1.1,1.1,87,0.00,CLR,SCT,0.00,0.0,WeatherDisplay:10.37,2014-07-23 08:01:00,
2014-07-23 01:06:00,55.3,51.5,30.04,ESE,108,1.1,0.0,87,0.00,CLR,SCT,0.00,0.0,WeatherDisplay:10.37,2014-07-23 08:06:00,
2014-07-23 01:11:00,55.1,51.3,30.04,ESE,108,2.0,2.0,87,0.00,CLR,SCT,0.00,0.0,WeatherDisplay:10.37,2014-07-23 08:11:00,
2014-07-23 01:16:00,54.9,51.1,30.04,ESE,108,1.1,0.0,87,0.00,CLR,SCT,0.00,0.0,WeatherDisplay:10.37,2014-07-23 08:16:00,
2014-07-23 01:21:00,54.8,51.3,30.05,ESE,108,1.1,1.1,88,0.00,CLR,SCT,0.00,0.0,WeatherDisplay:10.37,2014-07-23 08:21:00,
2014-07-23 01:26:00,54.6,51.1,30.05,ESE,108,0.0,0.0,88,0.00,CLR,SCT,0.00,0.0,WeatherDisplay:10.37,2014-07-23 08:26:00,
2014-07-23 01:31:00,54.5,51.0,30.05,ESE,108,1.1,1.1,88,0.00,CLR,SCT,0.00,0.0,WeatherDisplay:10.37,2014-07-23 08:31:00,
2014-07-23 01:36:00,54.3,50.8,30.05,ESE,108,0.0,0.0,88,0.00,CLR,SCT,0.00,0.0,WeatherDisplay:10.37,2014-07-23 08:36:00,
2014-07-23 01:41:00,54.2,50.7,30.05,ESE,108,0.0,0.0,88,0.00,CLR,SCT,0.00,0.0,WeatherDisplay:10.37,2014-07-23 08:41:00,
2014-07-23 01:46:00,54.1,50.6,30.05,ESE,108,1.1,1.1,88,0.00,CLR,SCT,0.00,0.0,WeatherDisplay:10.37,2014-07-23 08:46:00,
2014-07-23 01:51:00,53.9,50.7,30.05,ESE,108,1.1,0.0,89,0.00,CLR,SCT,0.00,0.0,WeatherDisplay:10.37,2014-07-23 08:51:00,
2014-07-23 01:56:00,53.7,50.5,30.05,ESE,108,0.0,0.0,89,0.00,CLR,SCT,0.00,0.0,WeatherDisplay:10.37,2014-07-23 08:56:00,
2014-07-23 02:01:00,53.6,50.4,30.05,ESE,108,0.0,0.0,89,0.00,CLR,SCT,0.00,0.0,WeatherDisplay:10.37,2014-07-23 09:01:00,
2014-07-23 02:06:00,53.5,50.3,30.05,ESE,108,1.1,1.1,89,0.00,CLR,SCT,0.00,0.0,WeatherDisplay:10.37,2014-07-23 09:06:00,
2014-07-23 02:11:00,53.4,50.5,30.05,ESE,108,1.1,1.1,90,0.00,CLR,SCT,0.00,0.0,WeatherDisplay:10.37,2014-07-23 09:11:00,
2014-07-23 02:16:00,53.2,50.3,30.05,ESE,108,1.1,1.1,90,0.00,CLR,SCT,0.00,0.0,WeatherDisplay:10.37,2014-07-23 09:16:00,
2014-07-23 02:21:00,53.2,50.3,30.05,ESE,108,0.0,0.0,90,0.00,CLR,SCT,0.00,0.0,WeatherDisplay:10.37,2014-07-23 09:21:00,
2014-07-23 02:26:00,53.1,50.2,30.05,ESE,108,1.1,1.1,90,0.00,CLR,SCT,0.00,0.0,WeatherDisplay:10.37,2014-07-23 09:26:00,
2014-07-23 02:31:00,53.0,50.1,30.05,ESE,108,1.0,1.0,90,0.00,CLR,SCT,0.00,0.0,WeatherDisplay:10.37,2014-07-23 09:31:00,
2014-07-23 02:36:00,53.0,50.1,30.05,ESE,108,2.3,2.3,90,0.00,CLR,SCT,0.00,0.0,WeatherDisplay:10.37,2014-07-23 09:36:00,
2014-07-23 02:41:00,52.9,50.0,30.05,ESE,108,0.0,0.0,90,0.00,CLR,SCT,0.00,0.0,WeatherDisplay:10.37,2014-07-23 09:41:00,
2014-07-23 02:46:00,52.8,50.2,30.04,ESE,108,0.0,0.0,91,0.00,CLR,SCT,0.00,0.0,WeatherDisplay:10.37,2014-07-23 09:46:00,
2014-07-23 02:51:00,52.8,50.2,30.04,ESE,108,0.0,0.0,91,0.00,CLR,SCT,0.00,0.0,WeatherDisplay:10.37,2014-07-23 09:51:00,
2014-07-23 02:56:00,52.8,50.2,30.04,ESE,108,1.1,0.0,91,0.00,CLR,SCT,0.00,0.0,WeatherDisplay:10.37,2014-07-23 09:56:00,
2014-07-23 03:01:00,52.7,50.1,30.04,ESE,108,0.0,0.0,91,0.00,CLR,SCT,0.00,0.0,WeatherDisplay:10.37,2014-07-23 10:01:00,
2014-07-23 03:06:00,52.8,50.2,30.04,ESE,108,0.0,0.0,91,0.00,CLR,SCT,0.00,0.0,WeatherDisplay:10.37,2014-07-23 10:06:00,
2014-07-23 03:11:00,52.9,50.6,30.04,ESE,108,1.1,1.1,92,0.00,CLR,SCT,0.00,0.0,WeatherDisplay:10.37,2014-07-23 10:11:00,
2014-07-23 03:16:00,52.9,50.6,30.03,ESE,108,0.0,0.0,92,0.00,CLR,SCT,0.00,0.0,WeatherDisplay:10.37,2014-07-23 10:16:00,
2014-07-23 03:21:00,53.0,50.4,30.03,ESE,108,1.1,0.0,91,0.00,CLR,SCT,0.00,0.0,WeatherDisplay:10.37,2014-07-23 10:21:00,
2014-07-23 03:26:00,53.1,50.5,30.03,ESE,108,0.0,0.0,91,0.00,CLR,SCT,0.00,0.0,WeatherDisplay:10.37,2014-07-23 10:26:00,
2014-07-23 03:31:00,53.2,50.6,30.03,ESE,108,1.1,1.1,91,0.00,CLR,SCT,0.00,0.0,WeatherDisplay:10.37,2014-07-23 10:31:00,
2014-07-23 03:36:00,53.3,50.7,30.03,ESE,108,1.1,1.1,91,0.00,CLR,SCT,0.00,0.0,WeatherDisplay:10.37,2014-07-23 10:36:00,
2014-07-23 03:41:00,53.3,50.7,30.03,ESE,108,0.0,0.0,91,0.00,CLR,SCT,0.00,0.0,WeatherDisplay:10.37,2014-07-23 10:41:00,
2014-07-23 03:46:00,53.3,50.7,30.03,ESE,108,1.1,0.0,91,0.00,CLR,SCT,0.00,0.0,WeatherDisplay:10.37,2014-07-23 10:46:00,
2014-07-23 03:51:00,53.3,50.7,30.03,ESE,108,1.1,1.1,91,0.00,CLR,SCT,0.00,0.0,WeatherDisplay:10.37,2014-07-23 10:51:00,
2014-07-23 03:56:00,53.3,50.7,30.03,ESE,108,1.1,1.1,91,0.00,CLR,SCT,0.00,0.0,WeatherDisplay:10.37,2014-07-23 10:56:00,
2014-07-23 04:01:00,53.2,50.6,30.03,ESE,108,1.0,1.0,91,0.00,CLR,SCT,0.00,0.0,WeatherDisplay:10.37,2014-07-23 11:01:00,
2014-07-23 04:06:00,53.3,50.7,30.03,ESE,108,0.0,0.0,91,0.00,CLR,SCT,0.00,0.0,WeatherDisplay:10.37,2014-07-23 11:06:00,
2014-07-23 04:11:00,53.3,51.0,30.03,ESE,108,2.3,2.3,92,0.00,CLR,SCT,0.00,0.0,WeatherDisplay:10.37,2014-07-23 11:11:00,
2014-07-23 04:16:00,53.4,51.1,30.03,ESE,108,1.1,1.1,92,0.00,CLR,SCT,0.00,0.0,WeatherDisplay:10.37,2014-07-23 11:16:00,
2014-07-23 04:21:00,53.5,51.2,30.03,ESE,108,1.1,1.1,92,0.00,CLR,SCT,0.00,0.0,WeatherDisplay:10.37,2014-07-23 11:21:00,
2014-07-23 04:27:00,53.5,51.2,30.03,ESE,108,1.1,1.1,92,0.00,CLR,SCT,0.00,0.0,WeatherDisplay:10.37,2014-07-23 11:27:00,
2014-07-23 04:32:00,53.6,51.3,30.03,ESE,108,0.0,0.0,92,0.00,CLR,SCT,0.00,0.0,WeatherDisplay:10.37,2014-07-23 11:32:00,
2014-07-23 04:37:00,53.6,51.3,30.03,ESE,108,1.1,1.1,92,0.00,CLR,SCT,0.00,0.0,WeatherDisplay:10.37,2014-07-23 11:37:00,
2014-07-23 04:42:00,53.6,51.3,30.03,ESE,108,1.1,1.1,92,0.00,CLR,SCT,0.00,0.0,WeatherDisplay:10.37,2014-07-23 11:42:00,
2014-07-23 04:47:00,53.7,51.4,30.03,ENE,63,2.3,2.3,92,0.00,CLR,SCT,0.00,0.0,WeatherDisplay:10.37,2014-07-23 11:47:00,
2014-07-23 04:52:00,53.7,51.4,30.03,ENE,63,2.3,0.0,92,0.00,CLR,SCT,0.00,0.0,WeatherDisplay:10.37,2014-07-23 11:52:00,
2014-07-23 04:57:00,53.7,51.1,30.03,ENE,63,1.1,0.0,91,0.00,CLR,SCT,0.00,0.0,WeatherDisplay:10.37,2014-07-23 11:57:00,
2014-07-23 05:02:00,53.7,51.1,30.03,ENE,63,0.0,0.0,91,0.00,CLR,SCT,0.00,0.0,WeatherDisplay:10.37,2014-07-23 12:02:00,
2014-07-23 05:07:00,53.8,51.5,30.03,ENE,63,1.1,0.0,92,0.00,CLR,SCT,0.00,0.0,WeatherDisplay:10.37,2014-07-23 12:07:00,
2014-07-23 05:12:00,53.8,51.5,30.03,ENE,63,1.1,0.0,92,0.00,CLR,SCT,0.00,0.0,WeatherDisplay:10.37,2014-07-23 12:12:00,
2014-07-23 05:17:00,53.8,51.2,30.03,ENE,63,0.0,0.0,91,0.00,CLR,SCT,0.00,0.0,WeatherDisplay:10.37,2014-07-23 12:17:00,
2014-07-23 05:22:00,53.7,51.1,30.04,ENE,63,1.1,1.1,91,0.00,CLR,SCT,0.00,0.0,WeatherDisplay:10.37,2014-07-23 12:22:00,
2014-07-23 05:27:00,53.5,50.9,30.04,ENE,63,0.0,0.0,91,0.00,CLR,SCT,0.00,0.0,WeatherDisplay:10.37,2014-07-23 12:27:00,
2014-07-23 05:32:00,53.4,51.1,30.04,ENE,63,1.1,1.1,92,0.00,CLR,SCT,0.00,0.0,WeatherDisplay:10.37,2014-07-23 12:32:00,
2014-07-23 05:37:00,53.4,51.1,30.04,ENE,63,1.1,1.1,92,0.00,CLR,SCT,0.00,0.0,WeatherDisplay:10.37,2014-07-23 12:37:00,
2014-07-23 05:42:00,53.3,51.0,30.04,ENE,63,1.1,0.0,92,0.00,BKN,SCT,0.00,0.0,WeatherDisplay:10.37,2014-07-23 12:42:00,
2014-07-23 05:47:00,53.4,51.4,30.04,ENE,63,2.3,2.3,93,0.00,BKN,SCT,0.00,0.0,WeatherDisplay:10.37,2014-07-23 12:47:00,
2014-07-23 05:52:00,53.5,51.5,30.04,ENE,63,1.1,0.0,93,0.00,BKN,SCT,0.00,0.0,WeatherDisplay:10.37,2014-07-23 12:52:00,
2014-07-23 05:57:00,53.6,51.6,30.04,ENE,59,2.3,2.3,93,0.00,BKN,SCT,0.00,0.0,WeatherDisplay:10.37,2014-07-23 12:57:00,
2014-07-23 06:02:00,53.7,51.7,30.04,ENE,59,1.1,1.1,93,0.00,OVC,SCT,0.00,0.0,WeatherDisplay:10.37,2014-07-23 13:02:00,
2014-07-23 06:07:00,53.8,51.8,30.05,ENE,59,1.1,0.0,93,0.00,OVC,SCT,0.00,0.0,WeatherDisplay:10.37,2014-07-23 13:07:00,
2014-07-23 06:12:00,53.9,51.9,30.05,ENE,59,2.3,2.3,93,0.00,OVC,SCT,0.00,0.0,WeatherDisplay:10.37,2014-07-23 13:12:00,
2014-07-23 06:17:00,53.9,51.6,30.05,ENE,59,0.0,0.1,92,0.00,OVC,SCT,0.00,0.0,WeatherDisplay:10.37,2014-07-23 13:17:00,
2014-07-23 06:22:00,53.8,51.5,30.05,ENE,66,2.3,0.0,92,0.00,OVC,SCT,0.00,0.0,WeatherDisplay:10.37,2014-07-23 13:22:00,
2014-07-23 06:27:00,53.8,51.5,30.05,ENE,67,1.1,1.1,92,0.00,OVC,SCT,0.00,0.0,WeatherDisplay:10.37,2014-07-23 13:27:00,
2014-07-23 06:32:00,53.7,51.4,30.05,ENE,67,3.5,3.5,92,0.00,OVC,SCT,0.00,0.0,WeatherDisplay:10.37,2014-07-23 13:32:00,
2014-07-23 06:37:00,53.6,51.3,30.05,ENE,67,1.1,1.1,92,0.00,OVC,SCT,0.00,0.0,WeatherDisplay:10.37,2014-07-23 13:37:00,
2014-07-23 06:42:00,53.5,51.2,30.05,ENE,67,0.0,0.0,92,0.00,OVC,SCT,0.00,0.0,WeatherDisplay:10.37,2014-07-23 13:42:00,
2014-07-23 06:47:00,53.4,51.4,30.05,ENE,67,1.1,1.1,93,0.00,OVC,SCT,0.00,0.0,WeatherDisplay:10.37,2014-07-23 13:47:00,
2014-07-23 06:52:00,53.4,51.4,30.05,ENE,67,1.0,1.0,93,0.00,OVC,SCT,0.00,0.0,WeatherDisplay:10.37,2014-07-23 13:52:00,
2014-07-23 06:57:00,53.4,51.4,30.05,ENE,67,0.0,0.0,93,0.00,OVC,SCT,0.00,0.0,WeatherDisplay:10.37,2014-07-23 13:57:00,
2014-07-23 07:02:00,53.5,51.5,30.05,ENE,67,0.0,0.0,93,0.00,OVC,SCT,0.00,0.0,WeatherDisplay:10.37,2014-07-23 14:02:00,
2014-07-23 07:07:00,53.6,51.9,30.05,ENE,67,0.0,0.0,94,0.00,OVC,SCT,0.00,0.0,WeatherDisplay:10.37,2014-07-23 14:07:00,
2014-07-23 07:12:00,53.7,52.0,30.06,ENE,67,2.3,2.3,94,0.00,OVC,SCT,0.00,0.0,WeatherDisplay:10.37,2014-07-23 14:12:00,
2014-07-23 07:17:00,53.9,52.2,30.06,ENE,67,1.1,1.1,94,0.00,OVC,SCT,0.00,0.0,WeatherDisplay:10.37,2014-07-23 14:17:00,
2014-07-23 07:22:00,54.1,52.4,30.06,ENE,67,2.3,2.3,94,0.00,OVC,SCT,0.00,0.0,WeatherDisplay:10.37,2014-07-23 14:22:00,
2014-07-23 07:27:00,54.4,52.7,30.06,ENE,67,2.3,2.3,94,0.00,OVC,SCT,0.00,0.0,WeatherDisplay:10.37,2014-07-23 14:27:00,
2014-07-23 07:32:00,54.6,52.9,30.07,ENE,67,1.1,1.1,94,0.00,OVC,SCT,0.00,0.0,WeatherDisplay:10.37,2014-07-23 14:32:00,
2014-07-23 07:37:00,54.8,53.1,30.07,ENE,67,1.1,0.0,94,0.00,OVC,SCT,0.00,0.0,WeatherDisplay:10.37,2014-07-23 14:37:00,
2014-07-23 07:42:00,55.0,53.3,30.07,ENE,67,0.0,0.2,94,0.00,OVC,SCT,0.00,0.0,WeatherDisplay:10.37,2014-07-23 14:42:00,
2014-07-23 07:47:00,55.3,53.6,30.07,ENE,67,0.0,0.0,94,0.00,OVC,SCT,0.00,0.0,WeatherDisplay:10.37,2014-07-23 14:47:00,
2014-07-23 07:52:00,55.6,54.2,30.07,ENE,67,1.1,0.0,95,0.00,OVC,SCT,0.00,0.0,WeatherDisplay:10.37,2014-07-23 14:52:00,
2014-07-23 07:57:00,55.9,54.5,30.07,ENE,67,1.1,0.0,95,0.00,OVC,SCT,0.00,0.0,WeatherDisplay:10.37,2014-07-23 14:57:00,
2014-07-23 08:02:00,56.3,54.9,30.07,ENE,67,1.1,0.0,95,0.00,BKN,SCT,0.00,0.0,WeatherDisplay:10.37,2014-07-23 15:02:00,
2014-07-23 08:07:00,56.6,55.2,30.07,ENE,67,1.1,0.0,95,0.00,BKN,SCT,0.00,0.0,WeatherDisplay:10.37,2014-07-23 15:07:00,
2014-07-23 08:12:00,57.1,55.7,30.07,ENE,67,2.3,2.3,95,0.00,BKN,SCT,0.00,0.0,WeatherDisplay:10.37,2014-07-23 15:12:00,
2014-07-23 08:17:00,57.8,55.8,30.07,ENE,59,2.3,2.3,93,0.00,BKN,SCT,0.00,0.0,WeatherDisplay:10.37,2014-07-23 15:17:00,
2014-07-23 08:22:00,58.5,55.9,30.07,ENE,58,2.3,2.3,91,0.00,CLR,SCT,0.00,0.0,WeatherDisplay:10.37,2014-07-23 15:22:00,
2014-07-23 08:27:00,59.0,55.8,30.07,ENE,58,0.0,0.1,89,0.00,CLR,SCT,0.00,0.0,WeatherDisplay:10.37,2014-07-23 15:27:00,
2014-07-23 08:32:00,60.0,56.1,30.07,NNW,343,0.0,0.0,87,0.00,CLR,SCT,0.00,0.0,WeatherDisplay:10.37,2014-07-23 15:32:00,
2014-07-23 08:37:00,61.1,56.2,30.07,NNW,335,2.3,2.3,84,0.00,CLR,SCT,0.00,0.0,WeatherDisplay:10.37,2014-07-23 15:37:00,
2014-07-23 08:42:00,61.8,56.6,30.07,NNW,336,0.0,0.0,83,0.00,CLR,SCT,0.00,0.0,WeatherDisplay:10.37,2014-07-23 15:42:00,
2014-07-23 08:47:00,62.4,56.5,30.07,NNW,347,1.1,1.1,81,0.00,CLR,SCT,0.00,0.0,WeatherDisplay:10.37,2014-07-23 15:47:00,
2014-07-23 08:52:00,62.9,56.3,30.07,NNW,333,2.3,2.3,79,0.00,CLR,SCT,0.00,0.0,WeatherDisplay:10.37,2014-07-23 15:52:00,
2014-07-23 08:57:00,63.6,55.9,30.07,NNW,336,2.0,2.0,76,0.00,CLR,SCT,0.00,0.0,WeatherDisplay:10.37,2014-07-23 15:57:00,
2014-07-23 09:02:00,64.2,56.1,30.07,WNW,300,3.5,3.5,75,0.00,CLR,SCT,0.00,0.0,WeatherDisplay:10.37,2014-07-23 16:02:00,
2014-07-23 09:07:00,65.0,56.1,30.07,NW,322,2.3,2.3,73,0.00,CLR,SCT,0.00,0.0,WeatherDisplay:10.37,2014-07-23 16:07:00,
2014-07-23 09:12:00,65.7,56.4,30.07,NW,315,3.5,3.5,72,0.00,CLR,SCT,0.00,0.0,WeatherDisplay:10.37,2014-07-23 16:12:00,
2014-07-23 09:17:00,66.1,56.4,30.07,West,281,1.1,1.1,71,0.00,CLR,SCT,0.00,0.0,WeatherDisplay:10.37,2014-07-23 16:17:00,
2014-07-23 09:22:00,66.6,56.9,30.07,West,281,1.1,1.1,71,0.00,CLR,SCT,0.00,0.0,WeatherDisplay:10.37,2014-07-23 16:22:00,
2014-07-23 09:27:00,67.1,57.0,30.07,East,82,3.5,3.5,70,0.00,CLR,SCT,0.00,0.0,WeatherDisplay:10.37,2014-07-23 16:27:00,
2014-07-23 09:32:00,67.6,56.7,30.07,NW,316,3.5,3.5,68,0.00,CLR,SCT,0.00,0.0,WeatherDisplay:10.37,2014-07-23 16:32:00,
2014-07-23 09:37:00,68.0,56.6,30.07,NNW,329,2.3,2.3,67,0.00,CLR,SCT,0.00,0.0,WeatherDisplay:10.37,2014-07-23 16:37:00,
2014-07-23 09:42:00,68.4,56.6,30.07,NNW,331,3.5,3.5,66,0.00,CLR,SCT,0.00,0.0,WeatherDisplay:10.37,2014-07-23 16:42:00,
2014-07-23 09:47:00,68.6,56.8,30.07,NNW,333,2.3,2.3,66,0.00,CLR,SCT,0.00,0.0,WeatherDisplay:10.37,2014-07-23 16:47:00,
2014-07-23 09:52:00,69.1,56.4,30.07,NNW,332,2.3,2.3,64,0.00,CLR,SCT,0.00,0.0,WeatherDisplay:10.37,2014-07-23 16:52:00,
2014-07-23 09:57:00,69.5,57.2,30.07,ENE,59,1.1,1.1,65,0.00,CLR,SCT,0.00,0.0,WeatherDisplay:10.37,2014-07-23 16:57:00,
2014-07-23 10:02:00,70.1,56.0,30.08,SE,126,3.5,3.5,61,0.00,CLR,SCT,0.00,0.0,WeatherDisplay:10.37,2014-07-23 17:02:00,
2014-07-23 10:07:00,70.8,56.7,30.08,WNW,297,3.5,3.5,61,0.00,CLR,SCT,0.00,0.0,WeatherDisplay:10.37,2014-07-23 17:07:00,
2014-07-23 10:12:00,71.0,55.9,30.08,South,184,10.4,10.4,59,0.00,CLR,SCT,0.00,0.0,WeatherDisplay:10.37,2014-07-23 17:12:00,
2014-07-23 10:17:00,71.2,56.1,30.08,SW,215,2.3,2.3,59,0.00,CLR,SCT,0.00,0.0,WeatherDisplay:10.37,2014-07-23 17:17:00,
2014-07-23 10:22:00,71.4,56.8,30.08,NW,325,3.5,3.5,60,0.00,CLR,SCT,0.00,0.0,WeatherDisplay:10.37,2014-07-23 17:22:00,
2014-07-23 10:27:00,71.7,56.6,30.08,SE,134,3.5,3.5,59,0.00,CLR,SCT,0.00,0.0,WeatherDisplay:10.37,2014-07-23 17:27:00,
2014-07-23 10:32:00,72.2,57.5,30.08,SW,234,2.3,2.3,60,0.00,CLR,SCT,0.00,0.0,WeatherDisplay:10.37,2014-07-23 17:32:00,
2014-07-23 10:37:00,72.2,57.1,30.08,WNW,294,2.3,2.3,59,0.00,CLR,SCT,0.00,0.0,WeatherDisplay:10.37,2014-07-23 17:37:00,
2014-07-23 10:42:00,72.2,56.6,30.08,ESE,123,6.9,6.9,58,0.00,CLR,SCT,0.00,0.0,WeatherDisplay:10.37,2014-07-23 17:42:00,
2014-07-23 10:47:00,72.4,56.8,30.08,West,260,3.5,3.5,58,0.00,CLR,SCT,0.00,0.0,WeatherDisplay:10.37,2014-07-23 17:47:00,
2014-07-23 10:52:00,72.6,57.0,30.08,SSW,209,3.5,3.5,58,0.00,CLR,SCT,0.00,0.0,WeatherDisplay:10.37,2014-07-23 17:52:00,
2014-07-23 10:57:00,72.8,56.7,30.08,WNW,303,4.0,4.0,57,0.00,CLR,SCT,0.00,0.0,WeatherDisplay:10.37,2014-07-23 17:57:00,
2014-07-23 11:02:00,72.9,57.7,30.08,SE,138,3.5,3.5,59,0.00,CLR,SCT,0.00,0.0,WeatherDisplay:10.37,2014-07-23 18:02:00,
2014-07-23 11:07:00,72.9,54.8,30.08,SE,128,6.9,6.9,53,0.00,CLR,SCT,0.00,0.0,WeatherDisplay:10.37,2014-07-23 18:07:00,
2014-07-23 11:12:00,73.1,54.9,30.08,ESE,119,11.5,11.5,53,0.00,CLR,SCT,0.00,0.0,WeatherDisplay:10.37,2014-07-23 18:12:00,
2014-07-23 11:17:00,73.2,56.6,30.08,SW,232,3.0,3.0,56,0.00,CLR,SCT,0.00,0.0,WeatherDisplay:10.37,2014-07-23 18:17:00,
2014-07-23 11:22:00,73.3,55.1,30.09,NNW,328,9.2,9.2,53,0.00,CLR,SCT,0.00,0.0,WeatherDisplay:10.37,2014-07-23 18:22:00,
2014-07-23 11:27:00,73.2,54.5,30.09,East,92,9.2,9.2,52,0.00,CLR,SCT,0.00,0.0,WeatherDisplay:10.37,2014-07-23 18:27:00,
2014-07-23 11:32:00,73.0,55.4,30.08,SE,140,8.1,8.1,54,0.00,CLR,SCT,0.00,0.0,WeatherDisplay:10.37,2014-07-23 18:32:00,
2014-07-23 11:37:00,72.7,54.6,30.08,SW,218,5.8,5.8,53,0.00,CLR,SCT,0.00,0.0,WeatherDisplay:10.37,2014-07-23 18:37:00,
2014-07-23 11:42:00,73.4,56.2,30.08,SE,140,6.0,6.0,55,0.00,CLR,SCT,0.00,0.0,WeatherDisplay:10.37,2014-07-23 18:42:00,
2014-07-23 11:47:00,74.0,55.3,30.09,SE,134,3.5,3.5,52,0.00,CLR,SCT,0.00,0.0,WeatherDisplay:10.37,2014-07-23 18:47:00,
2014-07-23 11:52:00,74.8,56.0,30.09,West,261,8.1,8.1,52,0.00,CLR,SCT,0.00,0.0,WeatherDisplay:10.37,2014-07-23 18:52:00,
2014-07-23 11:57:00,74.8,54.9,30.09,NW,317,4.6,4.6,50,0.00,CLR,SCT,0.00,0.0,WeatherDisplay:10.37,2014-07-23 18:57:00,
2014-07-23 12:02:00,74.7,53.7,30.09,ESE,123,9.2,9.2,48,0.00,CLR,SCT,0.00,0.0,WeatherDisplay:10.37,2014-07-23 19:02:00,
2014-07-23 12:07:00,74.5,54.1,30.09,SW,220,3.5,3.5,49,0.00,CLR,SCT,0.00,0.0,WeatherDisplay:10.37,2014-07-23 19:07:00,
2014-07-23 12:12:00,74.4,54.0,30.09,SSW,213,11.5,11.5,49,0.00,CLR,SCT,0.00,0.0,WeatherDisplay:10.37,2014-07-23 19:12:00,
2014-07-23 12:17:00,75.0,55.1,30.09,South,177,3.5,3.5,50,0.00,CLR,SCT,0.00,0.0,WeatherDisplay:10.37,2014-07-23 19:17:00,
2014-07-23 12:22:00,75.4,54.9,30.09,South,169,3.5,3.5,49,0.00,CLR,SCT,0.00,0.0,WeatherDisplay:10.37,2014-07-23 19:22:00,
2014-07-23 12:27:00,75.3,54.3,30.09,NW,321,5.8,5.8,48,0.00,CLR,SCT,0.00,0.0,WeatherDisplay:10.37,2014-07-23 19:27:00,
2014-07-23 12:32:00,75.1,52.9,30.09,SE,133,4.0,4.0,46,0.00,CLR,SCT,0.00,0.0,WeatherDisplay:10.37,2014-07-23 19:32:00,
2014-07-23 12:37:00,75.5,51.4,30.08,ESE,108,5.8,5.8,43,0.00,CLR,SCT,0.00,0.0,WeatherDisplay:10.37,2014-07-23 19:37:00,
2014-07-23 12:42:00,75.1,51.1,30.08,ESE,121,4.6,4.6,43,0.00,CLR,SCT,0.00,0.0,WeatherDisplay:10.37,2014-07-23 19:42:00,
2014-07-23 12:47:00,74.9,52.1,30.08,SSW,202,6.9,6.9,45,0.00,CLR,SCT,0.00,0.0,WeatherDisplay:10.37,2014-07-23 19:47:00,
2014-07-23 12:52:00,75.2,51.8,30.08,SSW,197,6.9,6.9,44,0.00,CLR,SCT,0.00,0.0,WeatherDisplay:10.37,2014-07-23 19:52:00,
2014-07-23 12:57:00,75.1,51.1,30.09,SSW,200,11.5,11.5,43,0.00,CLR,SCT,0.00,0.0,WeatherDisplay:10.37,2014-07-23 19:57:00,
2014-07-23 13:02:00,75.3,51.3,30.08,SE,130,6.9,6.9,43,0.00,CLR,SCT,0.00,0.0,WeatherDisplay:10.37,2014-07-23 20:02:00,
2014-07-23 13:07:00,75.8,52.3,30.08,WNW,300,3.5,3.5,44,0.00,CLR,SCT,0.00,0.0,WeatherDisplay:10.37,2014-07-23 20:07:00,
2014-07-23 13:12:00,76.4,52.2,30.08,ESE,116,3.5,3.5,43,0.00,CLR,SCT,0.00,0.0,WeatherDisplay:10.37,2014-07-23 20:12:00,
2014-07-23 13:17:00,76.9,52.7,30.08,SE,134,4.0,4.0,43,0.00,CLR,SCT,0.00,0.0,WeatherDisplay:10.37,2014-07-23 20:17:00,
2014-07-23 13:22:00,76.8,52.0,30.08,ESE,111,7.0,7.0,42,0.00,CLR,SCT,0.00,0.0,WeatherDisplay:10.37,2014-07-23 20:22:00,
2014-07-23 13:27:00,76.6,51.8,30.08,SE,133,9.2,9.2,42,0.00,CLR,SCT,0.00,0.0,WeatherDisplay:10.37,2014-07-23 20:27:00,
2014-07-23 13:32:00,76.9,52.1,30.08,NNW,338,3.5,3.5,42,0.00,CLR,SCT,0.00,0.0,WeatherDisplay:10.37,2014-07-23 20:32:00,
2014-07-23 13:37:00,77.1,51.6,30.08,East,86,4.0,4.0,41,0.00,CLR,SCT,0.00,0.0,WeatherDisplay:10.37,2014-07-23 20:37:00,
2014-07-23 13:42:00,76.9,50.1,30.08,ENE,63,3.5,3.5,39,0.00,CLR,SCT,0.00,0.0,WeatherDisplay:10.37,2014-07-23 20:42:00,
2014-07-23 13:47:00,77.3,51.8,30.08,SSE,165,5.0,5.0,41,0.00,CLR,SCT,0.00,0.0,WeatherDisplay:10.37,2014-07-23 20:47:00,
2014-07-23 13:52:00,78.1,51.8,30.08,SW,215,2.3,2.3,40,0.00,CLR,SCT,0.00,0.0,WeatherDisplay:10.37,2014-07-23 20:52:00,
2014-07-23 13:57:00,78.3,51.3,30.08,SW,236,3.5,3.5,39,0.00,CLR,SCT,0.00,0.0,WeatherDisplay:10.37,2014-07-23 20:57:00,
2014-07-23 14:02:00,77.5,50.6,30.08,SSW,197,5.8,5.8,39,0.00,CLR,SCT,0.00,0.0,WeatherDisplay:10.37,2014-07-23 21:02:00,
2014-07-23 14:07:00,76.9,50.7,30.08,SE,126,3.5,3.5,40,0.00,CLR,SCT,0.00,0.0,WeatherDisplay:10.37,2014-07-23 21:07:00,
2014-07-23 14:12:00,77.3,52.4,30.08,SE,130,4.6,4.6,42,0.00,CLR,SCT,0.00,0.0,WeatherDisplay:10.37,2014-07-23 21:12:00,
2014-07-23 14:17:00,77.4,51.2,30.08,NW,306,3.5,3.5,40,0.00,CLR,SCT,0.00,0.0,WeatherDisplay:10.37,2014-07-23 21:17:00,
2014-07-23 14:22:00,77.6,50.0,30.08,SE,124,5.8,5.8,38,0.00,CLR,SCT,0.00,0.0,WeatherDisplay:10.37,2014-07-23 21:22:00,
2014-07-23 14:27:00,78.0,50.3,30.08,East,86,3.5,3.5,38,0.00,CLR,SCT,0.00,0.0,WeatherDisplay:10.37,2014-07-23 21:27:00,
2014-07-23 14:32:00,78.1,50.4,30.08,North,350,2.3,2.3,38,0.00,CLR,SCT,0.00,0.0,WeatherDisplay:10.37,2014-07-23 21:32:00,
2014-07-23 14:37:00,78.4,49.2,30.07,NW,315,3.5,3.5,36,0.00,CLR,SCT,0.00,0.0,WeatherDisplay:10.37,2014-07-23 21:37:00,
2014-07-23 14:42:00,78.2,49.8,30.07,WSW,256,6.9,6.9,37,0.00,CLR,SCT,0.00,0.0,WeatherDisplay:10.37,2014-07-23 21:42:00,
2014-07-23 14:47:00,78.0,48.9,30.08,SE,130,11.5,11.5,36,0.00,CLR,SCT,0.00,0.0,WeatherDisplay:10.37,2014-07-23 21:47:00,
2014-07-23 14:52:00,77.6,47.8,30.07,NNE,31,3.5,3.5,35,0.00,CLR,SCT,0.00,0.0,WeatherDisplay:10.37,2014-07-23 21:52:00,
2014-07-23 14:57:00,77.9,48.8,30.07,NE,41,6.9,6.9,36,0.00,CLR,SCT,0.00,0.0,WeatherDisplay:10.37,2014-07-23 21:57:00,
2014-07-23 15:02:00,78.5,49.3,30.07,NW,321,4.6,4.6,36,0.00,CLR,SCT,0.00,0.0,WeatherDisplay:10.37,2014-07-23 22:02:00,
2014-07-23 15:07:00,77.7,47.1,30.07,NW,310,3.5,3.5,34,0.00,CLR,SCT,0.00,0.0,WeatherDisplay:10.37,2014-07-23 22:07:00,
2014-07-23 15:12:00,78.1,46.6,30.07,SE,142,9.2,9.2,33,0.00,CLR,SCT,0.00,0.0,WeatherDisplay:10.37,2014-07-23 22:12:00,
2014-07-23 15:17:00,78.1,46.6,30.07,South,174,4.6,4.6,33,0.00,CLR,SCT,0.00,0.0,WeatherDisplay:10.37,2014-07-23 22:17:00,
2014-07-23 15:22:00,78.5,47.0,30.06,SSE,153,3.5,3.5,33,0.00,CLR,SCT,0.00,0.0,WeatherDisplay:10.37,2014-07-23 22:22:00,
2014-07-23 15:27:00,78.7,46.4,30.07,NE,40,3.5,3.5,32,0.00,CLR,SCT,0.00,0.0,WeatherDisplay:10.37,2014-07-23 22:27:00,
2014-07-23 15:32:00,78.6,46.3,30.06,SSE,152,3.5,3.5,32,0.00,CLR,SCT,0.00,0.0,WeatherDisplay:10.37,2014-07-23 22:32:00,
2014-07-23 15:37:00,78.6,46.3,30.06,NW,319,4.0,4.0,32,0.00,CLR,SCT,0.00,0.0,WeatherDisplay:10.37,2014-07-23 22:37:00,
2014-07-23 15:42:00,78.3,46.8,30.06,SE,128,4.6,4.6,33,0.00,CLR,SCT,0.00,0.0,WeatherDisplay:10.37,2014-07-23 22:42:00,
2014-07-23 15:47:00,78.4,45.3,30.06,NW,314,4.6,4.6,31,0.00,CLR,SCT,0.00,0.0,WeatherDisplay:10.37,2014-07-23 22:47:00,
2014-07-23 15:52:00,77.8,44.7,30.06,NW,325,2.3,2.3,31,0.00,CLR,SCT,0.00,0.0,WeatherDisplay:10.37,2014-07-23 22:52:00,
2014-07-23 15:57:00,77.6,44.6,30.06,SSE,167,3.5,3.5,31,0.00,CLR,SCT,0.00,0.0,WeatherDisplay:10.37,2014-07-23 22:57:00,
2014-07-23 16:02:00,77.7,45.5,30.06,NE,42,2.3,2.3,32,0.00,CLR,SCT,0.00,0.0,WeatherDisplay:10.37,2014-07-23 23:02:00,
2014-07-23 16:07:00,78.0,45.7,30.06,NW,305,3.5,3.5,32,0.00,CLR,SCT,0.00,0.0,WeatherDisplay:10.37,2014-07-23 23:07:00,
2014-07-23 16:12:00,77.6,44.6,30.06,NW,317,3.5,3.5,31,0.00,CLR,SCT,0.00,0.0,WeatherDisplay:10.37,2014-07-23 23:12:00,
2014-07-23 16:17:00,77.2,45.9,30.06,ESE,112,6.0,6.0,33,0.00,CLR,SCT,0.00,0.0,WeatherDisplay:10.37,2014-07-23 23:17:00,
2014-07-23 16:22:00,77.0,44.9,30.05,ESE,115,7.0,7.0,32,0.00,CLR,SCT,0.00,0.0,WeatherDisplay:10.37,2014-07-23 23:22:00,
2014-07-23 16:27:00,76.9,45.6,30.05,SE,138,10.4,10.4,33,0.00,CLR,SCT,0.00,0.0,WeatherDisplay:10.37,2014-07-23 23:27:00,
2014-07-23 16:32:00,76.8,43.0,30.05,NW,322,4.6,4.6,30,0.00,CLR,SCT,0.00,0.0,WeatherDisplay:10.37,2014-07-23 23:32:00,
2014-07-23 16:37:00,76.6,43.7,30.05,ESE,122,6.9,6.9,31,0.00,CLR,SCT,0.00,0.0,WeatherDisplay:10.37,2014-07-23 23:37:00,
2014-07-23 16:42:00,76.7,45.4,30.05,NW,317,3.5,3.5,33,0.00,CLR,SCT,0.00,0.0,WeatherDisplay:10.37,2014-07-23 23:42:00,
2014-07-23 16:47:00,76.3,43.4,30.05,NW,321,8.1,8.1,31,0.00,CLR,SCT,0.00,0.0,WeatherDisplay:10.37,2014-07-23 23:47:00,
2014-07-23 16:52:00,76.0,44.0,30.05,NW,314,3.5,3.5,32,0.00,CLR,SCT,0.00,0.0,WeatherDisplay:10.37,2014-07-23 23:52:00,
2014-07-23 16:57:00,76.0,44.0,30.05,SE,125,4.6,4.6,32,0.00,CLR,SCT,0.00,0.0,WeatherDisplay:10.37,2014-07-23 23:57:00,
2014-07-23 17:02:00,76.2,46.5,30.05,ESE,118,3.5,3.5,35,0.00,CLR,SCT,0.00,0.0,WeatherDisplay:10.37,2014-07-24 00:02:00,
2014-07-23 17:07:00,76.3,47.4,30.05,SE,144,4.0,4.0,36,0.00,CLR,SCT,0.00,0.0,WeatherDisplay:10.37,2014-07-24 00:07:00,
2014-07-23 17:12:00,76.3,46.6,30.05,ESE,122,3.5,3.5,35,0.00,CLR,SCT,0.00,0.0,WeatherDisplay:10.37,2014-07-24 00:12:00,
2014-07-23 17:17:00,76.0,47.1,30.05,ESE,115,3.5,3.5,36,0.00,CLR,SCT,0.00,0.0,WeatherDisplay:10.37,2014-07-24 00:17:00,
2014-07-23 17:22:00,75.8,46.9,30.04,SE,125,5.0,5.0,36,0.00,CLR,SCT,0.00,0.0,WeatherDisplay:10.37,2014-07-24 00:22:00,
2014-07-23 17:27:00,75.8,46.2,30.04,SE,141,2.3,2.3,35,0.00,CLR,SCT,0.00,0.0,WeatherDisplay:10.37,2014-07-24 00:27:00,
2014-07-23 17:32:00,75.6,46.8,30.04,NE,56,5.8,5.8,36,0.00,CLR,SCT,0.00,0.0,WeatherDisplay:10.37,2014-07-24 00:32:00,